Time;durP1;ratioP1;P1;durP2;ratioP2;P2;SDS_P1;SDS_P2;PMS_P1;PMS_P2;Temp;Humidity;BMP_temperature;BMP_pressure;BME280_temperature;BME280_humidity;BME280_pressure;Samples;Min_cycle;Max_cycle;Signal;HPM_P1;HPM_P2
2022/01/19 00:01:33;;;;;;;1.20;1.10;;;-0.70;99.90;;;;;;5055683;28;20579;-55
2022/01/19 00:04:00;;;;;;;1.37;1.27;;;-0.60;99.90;;;;;;5060063;28;20475;-55
2022/01/19 00:06:27;;;;;;;1.50;1.40;;;-0.50;99.90;;;;;;5052476;28;20474;-57
2022/01/19 00:08:54;;;;;;;1.93;1.10;;;-0.60;99.90;;;;;;5057892;28;20493;-56
2022/01/19 00:11:22;;;;;;;1.07;0.87;;;-1.00;99.90;;;;;;5046465;28;20452;-55
2022/01/19 00:13:50;;;;;;;1.23;1.10;;;-1.00;99.90;;;;;;5065038;28;20502;-55
2022/01/19 00:16:17;;;;;;;1.13;1.03;;;-1.00;99.90;;;;;;5055217;28;20470;-65
2022/01/19 00:18:46;;;;;;;1.37;0.97;;;-1.10;99.90;;;;;;5054174;28;20480;-57
2022/01/19 00:21:13;;;;;;;1.03;0.90;;;-1.10;99.90;;;;;;5067084;28;20515;-58
2022/01/19 00:23:40;;;;;;;1.33;0.77;;;-1.10;99.90;;;;;;5055286;28;20483;-58
2022/01/19 00:26:07;;;;;;;1.00;0.70;;;-1.10;99.90;;;;;;5060362;28;20520;-55
2022/01/19 00:28:34;;;;;;;1.20;1.10;;;-1.00;99.90;;;;;;5065952;28;20475;-60
2022/01/19 00:31:01;;;;;;;1.77;1.10;;;-0.90;99.90;;;;;;5057152;28;20856;-57
2022/01/19 00:33:28;;;;;;;2.30;1.37;;;-0.80;99.90;;;;;;5055799;28;20487;-56
2022/01/19 00:35:56;;;;;;;2.43;1.60;;;-0.70;99.90;;;;;;5066388;28;20551;-58
2022/01/19 00:38:23;;;;;;;1.63;1.40;;;-0.70;99.90;;;;;;5057921;28;20477;-55
2022/01/19 00:40:50;;;;;;;2.00;1.47;;;-0.70;99.90;;;;;;5051213;28;20480;-56
2022/01/19 00:43:17;;;;;;;1.10;1.00;;;-0.70;99.90;;;;;;5050076;28;20955;-57
2022/01/19 00:45:45;;;;;;;1.20;1.10;;;-0.70;99.90;;;;;;5060695;28;21010;-56
2022/01/19 00:48:12;;;;;;;0.90;0.70;;;-0.80;99.90;;;;;;5056292;28;20967;-55
2022/01/19 00:50:39;;;;;;;1.20;1.10;;;-0.90;99.90;;;;;;5057658;28;20620;-58
2022/01/19 00:53:08;;;;;;;1.50;1.30;;;-0.90;99.90;;;;;;5056451;28;20543;-57
2022/01/19 00:55:34;;;;;;;1.30;1.20;;;-0.90;99.90;;;;;;5052019;28;20495;-57
2022/01/19 00:58:01;;;;;;;1.30;1.20;;;-1.00;99.90;;;;;;5059800;28;20479;-57
2022/01/19 01:00:29;;;;;;;1.90;1.20;;;-1.00;99.90;;;;;;5056816;28;20507;-56
2022/01/19 01:02:56;;;;;;;1.43;1.20;;;-1.10;99.90;;;;;;5062892;28;20867;-57
2022/01/19 01:05:24;;;;;;;1.80;1.30;;;-1.10;99.90;;;;;;5068495;28;20503;-56
2022/01/19 01:07:51;;;;;;;1.97;1.77;;;-1.10;99.90;;;;;;5054132;28;20818;-57
2022/01/19 01:10:21;;;;;;;1.53;1.30;;;-1.20;99.90;;;;;;5058842;28;20776;-57
2022/01/19 01:12:50;;;;;;;2.80;2.07;;;-1.20;99.90;;;;;;5064235;28;20787;-58
2022/01/19 01:15:36;;;;;;;1.30;1.20;;;-1.50;99.90;;;;;;5059321;28;20565;-56
2022/01/19 01:18:20;;;;;;;2.20;1.70;;;-1.50;99.90;;;;;;5058120;28;20445;-57
2022/01/19 01:20:50;;;;;;;1.43;1.33;;;-1.40;99.90;;;;;;5053441;28;20455;-56
2022/01/19 01:23:18;;;;;;;1.53;0.97;;;-1.40;99.90;;;;;;5059289;28;20537;-56
2022/01/19 01:25:47;;;;;;;0.97;0.97;;;-1.30;99.90;;;;;;5061272;28;20482;-59
2022/01/19 01:28:15;;;;;;;2.43;1.60;;;-1.30;99.90;;;;;;5058231;28;20474;-55
2022/01/19 01:30:43;;;;;;;1.10;1.00;;;-1.20;99.90;;;;;;5063351;28;20456;-56
2022/01/19 01:33:10;;;;;;;0.80;0.60;;;-1.10;99.90;;;;;;5064756;28;20477;-57
2022/01/19 01:35:38;;;;;;;1.17;0.80;;;-1.10;99.90;;;;;;5056290;28;20492;-55
2022/01/19 01:38:06;;;;;;;1.33;0.80;;;-1.00;99.90;;;;;;5055153;28;20485;-55
2022/01/19 01:40:34;;;;;;;2.00;1.10;;;-0.90;99.90;;;;;;5061041;28;20892;-54
2022/01/19 01:43:05;;;;;;;1.57;0.80;;;-0.90;99.90;;;;;;5056772;28;21036;-56
2022/01/19 01:45:35;;;;;;;2.10;0.80;;;-0.90;99.90;;;;;;5057536;28;20505;-56
2022/01/19 01:48:08;;;;;;;2.10;1.50;;;-0.90;99.90;;;;;;5059287;28;20995;-56
2022/01/19 01:53:28;;;;;;;2.20;2.00;;;-1.20;99.90;;;;;;5045011;28;20430;-55
2022/01/19 01:56:04;;;;;;;2.00;1.53;;;-1.10;99.90;;;;;;5042952;28;20801;-58
2022/01/19 01:58:34;;;;;;;2.53;2.23;;;-1.10;99.90;;;;;;5063215;28;20479;-56
2022/01/19 02:01:02;;;;;;;2.67;2.03;;;-1.00;99.90;;;;;;5057097;28;20538;-59
2022/01/19 02:03:37;;;;;;;1.97;1.67;;;-0.90;99.90;;;;;;5048810;28;20508;-55
2022/01/19 02:06:22;;;;;;;1.47;1.00;;;-0.80;99.90;;;;;;5061364;28;20982;-55
2022/01/19 02:08:55;;;;;;;0.77;0.77;;;-0.80;99.90;;;;;;5067401;28;20933;-56
2022/01/19 02:15:47;;;;;;;0.80;0.70;;;-0.80;99.90;;;;;;5059451;28;20445;-57
2022/01/19 02:22:50;;;;;;;0.77;0.77;;;-1.50;99.90;;;;;;5051311;28;20481;-56
2022/01/19 02:25:25;;;;;;;1.03;0.80;;;-1.90;99.90;;;;;;5057082;28;20606;-57
2022/01/19 02:41:36;;;;;;;0.90;0.90;;;-1.60;99.90;;;;;;5052123;28;20497;-55
2022/01/19 02:44:03;;;;;;;2.67;1.10;;;-1.50;99.90;;;;;;5059871;28;20508;-55
2022/01/19 02:46:40;;;;;;;1.10;1.00;;;-1.50;99.90;;;;;;5082028;23;20504;-87
2022/01/19 02:49:15;;;;;;;1.67;1.20;;;-1.50;99.90;;;;;;5079430;28;20473;-87
2022/01/19 02:51:44;;;;;;;1.30;1.03;;;-1.50;99.90;;;;;;5084131;28;20475;-86
2022/01/19 02:54:13;;;;;;;1.00;0.90;;;-1.50;99.90;;;;;;5074114;28;20426;-87
2022/01/19 02:56:42;;;;;;;0.97;0.97;;;-2.00;99.90;;;;;;5064562;28;20443;-86
2022/01/19 02:59:16;;;;;;;0.67;0.63;;;-2.20;99.90;;;;;;5077904;28;20497;-88
2022/01/19 03:09:59;;;;;;;1.30;1.20;;;-1.70;99.90;;;;;;5036374;28;20484;-49
2022/01/19 03:12:26;;;;;;;0.90;0.83;;;-1.60;99.90;;;;;;5082119;23;20450;-47
2022/01/19 03:14:53;;;;;;;1.20;1.10;;;-1.70;99.90;;;;;;5054525;28;21010;-49
2022/01/19 03:17:19;;;;;;;1.00;1.00;;;-1.80;99.90;;;;;;5048678;28;20448;-49
2022/01/19 03:19:46;;;;;;;1.13;1.03;;;-1.80;99.90;;;;;;5051760;28;20486;-51
2022/01/19 03:22:16;;;;;;;0.90;0.80;;;-1.80;99.90;;;;;;5061502;28;20522;-46
2022/01/19 03:24:49;;;;;;;1.07;0.83;;;-1.80;99.90;;;;;;5059094;28;20480;-49
2022/01/19 03:27:17;;;;;;;1.93;1.00;;;-1.80;99.90;;;;;;5055265;28;20444;-50
2022/01/19 03:29:44;;;;;;;1.20;1.10;;;-1.80;99.90;;;;;;5061554;28;20553;-49
2022/01/19 03:32:12;;;;;;;2.40;1.27;;;-1.70;99.90;;;;;;5062812;28;20511;-50
2022/01/19 03:34:40;;;;;;;1.27;1.00;;;-1.70;99.90;;;;;;5051438;28;20442;-49
2022/01/19 03:37:07;;;;;;;1.17;1.00;;;-1.70;99.90;;;;;;5055657;28;20446;-49
2022/01/19 03:39:36;;;;;;;1.17;1.13;;;-1.70;99.90;;;;;;5057772;28;20473;-50
2022/01/19 03:42:04;;;;;;;1.17;1.07;;;-1.60;99.90;;;;;;5054867;28;20539;-50
2022/01/19 03:44:30;;;;;;;1.23;1.13;;;-1.60;99.90;;;;;;5057363;28;20496;-51
2022/01/19 03:47:00;;;;;;;1.43;1.00;;;-1.60;99.90;;;;;;5071062;28;20437;-49
2022/01/19 03:49:28;;;;;;;0.80;0.80;;;-1.50;99.90;;;;;;5060924;28;20494;-48
2022/01/19 03:51:58;;;;;;;0.60;0.57;;;-1.60;99.90;;;;;;5059471;28;20869;-49
2022/01/19 03:54:25;;;;;;;0.90;0.87;;;-1.50;99.90;;;;;;5066663;28;20499;-50
2022/01/19 03:56:54;;;;;;;0.80;0.80;;;-1.50;99.90;;;;;;5064376;28;20464;-50
2022/01/19 03:59:22;;;;;;;0.70;0.60;;;-1.50;99.90;;;;;;5058533;28;20478;-49
2022/01/19 04:01:51;;;;;;;2.00;0.87;;;-1.50;99.90;;;;;;5062977;28;20485;-49
2022/01/19 04:04:32;;;;;;;0.80;0.70;;;-1.60;99.90;;;;;;5060714;28;20552;-49
2022/01/19 04:07:07;;;;;;;1.00;0.60;;;-2.00;99.90;;;;;;5061127;28;21004;-49
2022/01/19 04:09:35;;;;;;;1.23;0.90;;;-2.20;99.90;;;;;;5055222;28;20518;-50
2022/01/19 04:12:04;;;;;;;0.80;0.70;;;-2.40;99.90;;;;;;5062994;28;20476;-48
2022/01/19 04:14:31;;;;;;;0.80;0.80;;;-2.40;99.90;;;;;;5048230;28;20464;-49
2022/01/19 04:17:02;;;;;;;1.00;1.00;;;-2.20;99.90;;;;;;5053307;28;20505;-50
2022/01/19 04:19:32;;;;;;;0.80;0.70;;;-2.10;99.90;;;;;;5055303;28;20485;-49
2022/01/19 04:22:01;;;;;;;0.90;0.70;;;-2.00;99.90;;;;;;5069673;28;20879;-50
2022/01/19 04:24:29;;;;;;;0.87;0.87;;;-1.90;99.90;;;;;;5053411;28;20499;-50
2022/01/19 04:27:31;;;;;;;1.73;1.30;;;-1.80;99.90;;;;;;5050546;28;20511;-50
2022/01/19 04:29:55;;;;;;;1.17;0.93;;;-1.90;99.90;;;;;;5057142;28;20448;-50
2022/01/19 04:32:28;;;;;;;1.20;1.03;;;-2.00;99.90;;;;;;5049885;28;20503;-50
2022/01/19 04:34:55;;;;;;;2.40;0.80;;;-1.90;99.90;;;;;;5051856;28;20465;-49
2022/01/19 04:37:37;;;;;;;0.77;0.77;;;-1.90;99.90;;;;;;5050563;28;20476;-50
2022/01/19 04:48:48;;;;;;;1.37;0.87;;;-2.70;99.90;;;;;;5019056;28;20810;-49
2022/01/19 05:02:29;;;;;;;0.80;0.80;;;-2.00;99.90;;;;;;5049891;28;20536;-49
2022/01/19 05:05:07;;;;;;;0.70;0.70;;;-1.90;99.90;;;;;;5043082;28;20463;-49
2022/01/19 05:07:39;;;;;;;2.23;1.17;;;-1.90;99.90;;;;;;5051286;28;20456;-49
2022/01/19 05:13:24;;;;;;;1.70;1.40;;;-2.20;99.90;;;;;;5056085;28;20441;-49
2022/01/19 05:15:48;;;;;;;1.13;1.03;;;-2.00;99.90;;;;;;5049318;28;20446;-49
2022/01/19 05:18:17;;;;;;;3.57;1.37;;;-2.00;99.90;;;;;;5052151;28;20936;-50
2022/01/19 05:20:45;;;;;;;1.93;1.73;;;-1.90;99.90;;;;;;5061613;28;20945;-49
2022/01/19 05:23:12;;;;;;;1.87;1.50;;;-1.90;99.90;;;;;;5057540;28;20867;-50
2022/01/19 05:25:39;;;;;;;1.70;1.60;;;-1.80;99.90;;;;;;5060023;28;20478;-50
2022/01/19 05:28:06;;;;;;;2.47;2.07;;;-1.80;99.90;;;;;;5056835;28;20469;-50
2022/01/19 05:30:33;;;;;;;2.70;2.20;;;-1.70;99.90;;;;;;5049282;28;20476;-47
2022/01/19 05:33:00;;;;;;;1.80;1.47;;;-1.70;99.90;;;;;;5048299;28;20930;-50
2022/01/19 05:35:30;;;;;;;1.30;1.20;;;-1.70;99.90;;;;;;5046573;28;20540;-49
2022/01/19 05:37:57;;;;;;;1.10;1.00;;;-1.70;99.90;;;;;;5049452;28;20532;-49
2022/01/19 05:40:24;;;;;;;1.20;1.10;;;-1.70;99.90;;;;;;5048356;28;20475;-50
2022/01/19 05:42:51;;;;;;;1.53;1.10;;;-1.70;99.90;;;;;;5048924;28;20522;-49
2022/01/19 05:45:19;;;;;;;7.30;3.40;;;-1.70;99.90;;;;;;5054041;28;20539;-48
2022/01/19 05:47:46;;;;;;;5.07;3.37;;;-1.80;99.90;;;;;;5052296;28;20489;-50
2022/01/19 05:50:13;;;;;;;3.70;1.97;;;-1.70;99.90;;;;;;5049115;28;20476;-47
2022/01/19 05:52:41;;;;;;;2.03;1.83;;;-1.70;99.90;;;;;;5052512;28;20488;-48
2022/01/19 05:55:09;;;;;;;2.10;1.60;;;-1.70;99.90;;;;;;5056288;28;20901;-50
2022/01/19 05:57:36;;;;;;;2.10;1.60;;;-1.80;99.90;;;;;;5057214;28;20485;-50
2022/01/19 06:00:06;;;;;;;1.33;0.83;;;-1.80;99.90;;;;;;5058770;28;20844;-50
2022/01/19 06:02:33;;;;;;;1.53;1.10;;;-1.80;99.90;;;;;;5045213;28;20489;-50
2022/01/19 06:04:59;;;;;;;0.97;0.80;;;-1.90;99.90;;;;;;5048527;28;20480;-49
2022/01/19 06:07:29;;;;;;;0.77;0.77;;;-1.80;99.90;;;;;;5047642;28;20932;-50
2022/01/19 06:10:04;;;;;;;0.83;0.77;;;-1.80;99.90;;;;;;5046733;28;20545;-49
2022/01/19 06:12:32;;;;;;;1.43;1.33;;;-1.90;99.90;;;;;;5049321;28;20477;-48
2022/01/19 06:15:00;;;;;;;1.20;1.10;;;-2.30;99.90;;;;;;5046209;28;20458;-49
2022/01/19 06:17:28;;;;;;;2.27;1.50;;;-2.30;99.90;;;;;;5046839;28;21052;-48
2022/01/19 06:19:55;;;;;;;3.47;3.17;;;-2.30;99.90;;;;;;5044457;28;20445;-49
2022/01/19 06:22:22;;;;;;;3.73;2.53;;;-2.10;99.90;;;;;;5044819;28;20473;-49
2022/01/19 06:24:49;;;;;;;1.67;1.57;;;-2.10;99.90;;;;;;5039357;28;20488;-49
2022/01/19 06:27:17;;;;;;;2.50;2.30;;;-2.00;99.90;;;;;;5049682;28;20885;-50
2022/01/19 06:29:44;;;;;;;4.00;2.97;;;-2.00;99.90;;;;;;5048815;28;20590;-49
2022/01/19 06:32:11;;;;;;;3.17;2.50;;;-2.00;99.90;;;;;;5048744;28;20851;-48
2022/01/19 06:34:38;;;;;;;12.77;11.47;;;-2.00;99.90;;;;;;5049661;28;20438;-49
2022/01/19 06:37:05;;;;;;;4.80;3.70;;;-2.00;99.90;;;;;;5049140;28;20476;-48
2022/01/19 06:39:32;;;;;;;1.60;1.50;;;-2.00;99.90;;;;;;5045185;28;20480;-49
2022/01/19 06:41:59;;;;;;;1.50;1.37;;;-2.00;99.90;;;;;;5048909;28;20473;-50
2022/01/19 06:44:27;;;;;;;2.10;1.07;;;-2.00;99.90;;;;;;5048885;28;20518;-48
2022/01/19 06:46:54;;;;;;;1.10;1.00;;;-1.90;99.90;;;;;;5044701;28;20453;-49
2022/01/19 06:49:21;;;;;;;2.33;2.13;;;-1.90;99.90;;;;;;5047458;28;20473;-47
2022/01/19 06:51:49;;;;;;;1.40;1.30;;;-1.80;99.90;;;;;;5046599;28;20485;-49
2022/01/19 06:54:16;;;;;;;2.80;2.60;;;-1.90;99.90;;;;;;5047031;28;20462;-49
2022/01/19 06:56:43;;;;;;;6.07;5.57;;;-1.90;99.90;;;;;;5047100;28;20473;-48
2022/01/19 06:59:10;;;;;;;3.20;3.00;;;-1.90;99.90;;;;;;5048217;28;20441;-49
2022/01/19 07:01:38;;;;;;;1.97;1.77;;;-2.40;99.90;;;;;;5058489;28;20474;-49
2022/01/19 07:04:05;;;;;;;1.10;1.00;;;-2.70;99.90;;;;;;5053715;28;20527;-46
2022/01/19 07:06:33;;;;;;;1.10;1.00;;;-2.90;99.90;;;;;;5061188;28;20965;-46
2022/01/19 07:09:00;;;;;;;1.10;1.00;;;-2.80;99.90;;;;;;5048322;28;20920;-49
2022/01/19 07:11:27;;;;;;;1.30;1.03;;;-2.80;99.90;;;;;;5046496;28;20485;-48
2022/01/19 07:13:54;;;;;;;1.10;1.10;;;-2.60;99.90;;;;;;5049601;28;20967;-49
2022/01/19 07:16:21;;;;;;;3.43;2.63;;;-2.40;99.90;;;;;;5063829;28;20448;-49
2022/01/19 07:18:50;;;;;;;8.10;5.60;;;-2.30;99.90;;;;;;5046627;28;20526;-48
2022/01/19 07:21:17;;;;;;;4.93;4.43;;;-2.50;99.90;;;;;;5050908;28;20497;-50
2022/01/19 07:23:44;;;;;;;2.53;2.33;;;-2.30;99.90;;;;;;5063789;28;21043;-49
2022/01/19 07:26:11;;;;;;;3.00;2.70;;;-2.20;99.90;;;;;;5054434;28;20517;-49
2022/01/19 07:28:37;;;;;;;3.23;2.33;;;-2.60;99.90;;;;;;5055951;28;21245;-51
2022/01/19 07:31:04;;;;;;;2.60;2.40;;;-2.70;99.90;;;;;;5063514;28;20492;-49
2022/01/19 07:33:31;;;;;;;6.93;4.20;;;-2.70;99.90;;;;;;5057653;28;20542;-50
2022/01/19 07:36:00;;;;;;;5.50;3.97;;;-2.50;99.90;;;;;;5054660;28;20481;-50
2022/01/19 07:38:27;;;;;;;6.13;4.63;;;-2.40;99.90;;;;;;5060138;28;20446;-48
2022/01/19 07:40:54;;;;;;;5.73;5.13;;;-2.20;99.90;;;;;;5061113;28;20444;-51
2022/01/19 07:43:21;;;;;;;4.70;4.30;;;-2.20;99.90;;;;;;5054569;28;20528;-49
2022/01/19 07:45:48;;;;;;;2.87;2.53;;;-2.10;99.90;;;;;;5057109;28;20474;-50
2022/01/19 07:48:15;;;;;;;3.10;2.60;;;-2.00;99.90;;;;;;5061203;28;20463;-49
2022/01/19 07:50:42;;;;;;;5.70;5.40;;;-1.90;99.90;;;;;;5058599;28;20460;-49
2022/01/19 07:53:11;;;;;;;5.07;4.67;;;-1.80;99.90;;;;;;5054496;28;20527;-49
2022/01/19 07:55:38;;;;;;;4.17;3.87;;;-1.90;99.90;;;;;;5061429;28;20901;-49
2022/01/19 07:58:05;;;;;;;3.70;3.40;;;-1.80;99.90;;;;;;5062298;28;20445;-51
2022/01/19 08:00:33;;;;;;;4.23;4.03;;;-1.80;99.90;;;;;;5051183;28;20486;-50
2022/01/19 08:03:00;;;;;;;3.27;3.00;;;-1.80;99.90;;;;;;5059324;28;20476;-50
2022/01/19 08:05:27;;;;;;;1.70;1.60;;;-1.70;99.90;;;;;;5057022;28;20484;-47
2022/01/19 08:07:54;;;;;;;1.27;1.17;;;-1.70;99.90;;;;;;5051877;28;20472;-49
2022/01/19 08:10:22;;;;;;;1.30;1.20;;;-1.70;99.90;;;;;;5054733;28;20438;-51
2022/01/19 08:12:51;;;;;;;1.37;1.03;;;-2.00;99.90;;;;;;5058988;28;20506;-49
2022/01/19 08:15:19;;;;;;;1.60;1.50;;;-2.30;99.90;;;;;;5055711;28;20514;-49
2022/01/19 08:17:45;;;;;;;2.40;2.20;;;-2.50;99.90;;;;;;5054881;28;20486;-49
2022/01/19 08:20:13;;;;;;;3.40;3.10;;;-2.50;99.90;;;;;;5046465;28;20505;-49
2022/01/19 08:22:40;;;;;;;4.43;3.30;;;-2.50;99.90;;;;;;5051029;28;20469;-52
2022/01/19 08:25:08;;;;;;;34.03;15.80;;;-2.40;99.90;;;;;;5051782;28;20510;-47
2022/01/19 08:27:36;;;;;;;19.33;9.13;;;-2.30;99.90;;;;;;5048551;28;20907;-46
2022/01/19 08:30:04;;;;;;;7.60;4.37;;;-2.20;99.90;;;;;;5050461;28;21259;-50
2022/01/19 08:32:31;;;;;;;3.47;2.83;;;-2.10;99.90;;;;;;5050760;28;20480;-50
2022/01/19 08:34:58;;;;;;;2.30;2.10;;;-2.10;99.90;;;;;;5049747;28;20445;-51
2022/01/19 08:37:25;;;;;;;2.10;2.00;;;-2.40;99.90;;;;;;5051295;28;20783;-50
2022/01/19 08:39:52;;;;;;;2.87;2.67;;;-2.30;99.90;;;;;;5054890;28;20472;-46
2022/01/19 08:42:19;;;;;;;2.97;2.43;;;-2.20;99.90;;;;;;5054472;28;20449;-50
2022/01/19 08:44:48;;;;;;;1.80;1.70;;;-2.10;99.90;;;;;;5050470;28;20979;-50
2022/01/19 08:47:16;;;;;;;1.47;1.37;;;-2.40;99.90;;;;;;5050261;28;20484;-50
2022/01/19 08:49:43;;;;;;;3.73;2.20;;;-2.40;99.90;;;;;;5051245;28;20477;-51
2022/01/19 08:52:10;;;;;;;1.80;1.70;;;-2.40;99.90;;;;;;5060821;28;20946;-49
2022/01/19 08:54:37;;;;;;;3.30;1.30;;;-2.40;99.90;;;;;;5067584;28;20471;-49
2022/01/19 08:57:04;;;;;;;2.47;2.10;;;-2.20;99.90;;;;;;5055821;28;20465;-47
2022/01/19 08:59:32;;;;;;;1.70;1.60;;;-2.10;99.90;;;;;;5057647;28;20473;-45
2022/01/19 09:02:00;;;;;;;3.27;2.97;;;-2.00;99.90;;;;;;5052642;28;20475;-46
2022/01/19 09:04:27;;;;;;;2.57;2.20;;;-1.90;99.90;;;;;;5050666;28;20516;-51
2022/01/19 09:06:55;;;;;;;2.90;2.60;;;-1.80;99.90;;;;;;5049648;28;20875;-50
2022/01/19 09:09:22;;;;;;;17.53;7.57;;;-1.80;99.90;;;;;;5049003;28;20951;-49
2022/01/19 09:11:49;;;;;;;5.93;3.60;;;-1.80;99.90;;;;;;5050094;28;20544;-50
2022/01/19 09:14:16;;;;;;;5.27;4.77;;;-2.20;99.90;;;;;;5065234;23;20536;-56
2022/01/19 09:16:44;;;;;;;3.03;2.10;;;-2.30;99.90;;;;;;5048480;28;20962;-56
2022/01/19 09:19:12;;;;;;;2.27;1.30;;;-2.50;99.90;;;;;;5049727;28;20443;-56
2022/01/19 09:21:39;;;;;;;1.43;1.33;;;-2.50;99.90;;;;;;5059768;28;20812;-57
2022/01/19 09:24:09;;;;;;;2.23;1.47;;;-2.50;99.90;;;;;;5049741;28;20927;-56
2022/01/19 09:26:36;;;;;;;1.70;1.60;;;-2.30;99.90;;;;;;5058694;28;20447;-58
2022/01/19 09:29:04;;;;;;;1.93;1.83;;;-2.10;99.90;;;;;;5061277;28;20438;-56
2022/01/19 09:31:33;;;;;;;2.10;2.00;;;-2.00;99.90;;;;;;5050405;28;20477;-56
2022/01/19 09:34:08;;;;;;;1.80;1.50;;;-1.90;99.90;;;;;;5058894;28;20841;-58
2022/01/19 09:36:44;;;;;;;2.07;1.90;;;-1.80;99.90;;;;;;5063477;28;20440;-57
2022/01/19 09:39:12;;;;;;;2.47;2.27;;;-1.80;99.90;;;;;;5044982;28;20496;-57
2022/01/19 09:41:39;;;;;;;2.10;1.90;;;-1.80;99.90;;;;;;5051921;28;20486;-57
2022/01/19 09:44:07;;;;;;;3.80;2.83;;;-1.80;99.90;;;;;;5047734;28;20995;-55
2022/01/19 09:46:34;;;;;;;4.27;3.17;;;-1.80;99.90;;;;;;5042955;28;20452;-56
2022/01/19 09:49:01;;;;;;;2.53;2.10;;;-1.70;99.90;;;;;;5045059;28;20489;-57
2022/01/19 09:51:30;;;;;;;1.83;1.73;;;-1.80;99.90;;;;;;5046553;28;20477;-54
2022/01/19 09:53:58;;;;;;;1.53;1.30;;;-1.80;99.90;;;;;;5038676;28;20832;-58
2022/01/19 09:56:25;;;;;;;2.10;1.67;;;-1.80;99.90;;;;;;5053601;28;20452;-56
2022/01/19 09:58:53;;;;;;;1.40;1.30;;;-2.00;99.90;;;;;;5044753;28;22184;-58
2022/01/19 10:01:20;;;;;;;1.60;1.50;;;-2.10;99.90;;;;;;5046073;28;20474;-55
2022/01/19 10:03:48;;;;;;;2.10;1.20;;;-2.20;99.90;;;;;;5057697;28;20496;-55
2022/01/19 10:06:16;;;;;;;1.40;1.30;;;-2.10;99.90;;;;;;5050515;28;20485;-56
2022/01/19 10:08:45;;;;;;;1.60;1.50;;;-2.00;99.90;;;;;;5059335;28;20532;-56
2022/01/19 10:11:18;;;;;;;1.73;1.33;;;-2.00;99.90;;;;;;5062761;28;20726;-55
2022/01/19 10:17:00;;;;;;;5.87;5.00;;;-1.80;99.90;;;;;;5048717;28;20440;-56
2022/01/19 10:19:30;;;;;;;8.03;6.53;;;-1.70;99.90;;;;;;5054308;28;20503;-58
2022/01/19 10:21:58;;;;;;;5.83;5.33;;;-1.60;99.90;;;;;;5060394;28;20547;-57
2022/01/19 10:24:34;;;;;;;5.20;4.73;;;-1.50;99.90;;;;;;5051715;28;20512;-58
2022/01/19 10:27:31;;;;;;;5.50;3.13;;;-1.30;99.90;;;;;;5049896;28;20510;-55
2022/01/19 10:30:22;;;;;;;2.50;2.30;;;-1.10;99.90;;;;;;5056985;28;20480;-56
2022/01/19 10:32:51;;;;;;;2.47;2.20;;;-1.00;99.90;;;;;;5065497;28;20506;-57
2022/01/19 10:35:22;;;;;;;2.33;2.13;;;-0.90;99.90;;;;;;5050946;28;20777;-57
2022/01/19 10:38:06;;;;;;;2.67;2.47;;;-0.90;99.90;;;;;;5050640;28;20535;-57
2022/01/19 10:40:35;;;;;;;2.00;1.80;;;-0.90;99.90;;;;;;5048226;28;20439;-57
2022/01/19 10:43:26;;;;;;;1.70;1.60;;;-0.80;99.90;;;;;;5054793;28;20543;-56
2022/01/19 10:45:54;;;;;;;1.70;1.60;;;-0.70;99.90;;;;;;5057264;28;20825;-57
2022/01/19 10:48:35;;;;;;;1.90;1.43;;;-0.60;99.90;;;;;;5048873;28;20480;-57
2022/01/19 10:51:12;;;;;;;2.03;1.60;;;-0.70;99.90;;;;;;5043697;28;20478;-55
2022/01/19 10:53:42;;;;;;;1.60;1.50;;;-0.50;99.90;;;;;;5064813;28;20963;-57
2022/01/19 10:56:25;;;;;;;1.80;1.70;;;-0.40;99.90;;;;;;5050066;28;20467;-55
2022/01/19 10:58:58;;;;;;;2.50;1.67;;;-0.30;99.90;;;;;;5051555;28;20444;-58
2022/01/19 11:01:41;;;;;;;1.73;1.40;;;-0.20;99.90;;;;;;5057994;28;20475;-58
2022/01/19 11:04:26;;;;;;;1.53;1.37;;;-0.30;99.90;;;;;;5056197;28;20513;-56
2022/01/19 11:06:56;;;;;;;1.50;1.40;;;-0.20;99.90;;;;;;5045619;28;20950;-58
2022/01/19 11:09:26;;;;;;;1.67;1.50;;;-0.10;99.90;;;;;;5040351;28;20479;-56
2022/01/19 11:11:55;;;;;;;1.13;1.03;;;0.10;99.90;;;;;;5044842;28;20472;-57
2022/01/19 11:14:24;;;;;;;1.40;1.30;;;0.20;99.90;;;;;;5061542;28;20514;-55
2022/01/19 11:16:52;;;;;;;1.93;1.83;;;0.30;99.90;;;;;;5043514;28;20448;-55
2022/01/19 11:19:20;;;;;;;4.90;2.00;;;0.40;99.90;;;;;;5047254;28;20446;-56
2022/01/19 11:22:11;;;;;;;3.10;1.80;;;0.40;99.90;;;;;;5047345;28;21485;-59
2022/01/19 11:24:46;;;;;;;5.70;3.30;;;0.40;99.90;;;;;;5042207;28;20976;-55
2022/01/19 11:27:15;;;;;;;3.13;2.83;;;0.60;99.90;;;;;;5049912;28;20565;-57
2022/01/19 11:29:43;;;;;;;4.43;3.00;;;0.70;99.90;;;;;;5055007;28;20448;-55
2022/01/19 11:32:17;;;;;;;7.83;3.43;;;0.80;99.90;;;;;;5048143;28;20498;-56
2022/01/19 11:34:48;;;;;;;6.40;3.90;;;0.80;99.90;;;;;;5044792;28;20977;-55
2022/01/19 11:37:17;;;;;;;4.07;3.50;;;0.80;99.90;;;;;;5044653;28;20837;-55
2022/01/19 11:39:59;;;;;;;4.53;3.13;;;0.90;99.90;;;;;;5045577;28;20482;-56
2022/01/19 11:42:26;;;;;;;4.23;3.80;;;1.00;99.90;;;;;;5044757;28;20480;-60
2022/01/19 11:44:54;;;;;;;3.40;3.10;;;1.00;99.90;;;;;;5047673;28;20578;-56
2022/01/19 11:47:24;;;;;;;5.57;3.50;;;1.00;99.90;;;;;;5052410;28;20488;-56
2022/01/19 11:49:54;;;;;;;3.40;3.13;;;1.10;99.90;;;;;;5054946;28;20969;-57
2022/01/19 11:52:23;;;;;;;4.40;3.43;;;1.20;99.90;;;;;;5045663;28;20476;-58
2022/01/19 11:54:52;;;;;;;4.67;3.50;;;1.30;99.90;;;;;;5044743;28;20462;-55
2022/01/19 11:57:22;;;;;;;3.80;3.40;;;1.30;99.90;;;;;;5046300;28;20465;-56
2022/01/19 12:00:16;;;;;;;6.47;5.00;;;1.40;99.90;;;;;;5040997;28;20453;-57
2022/01/19 12:02:45;;;;;;;5.20;4.70;;;1.50;99.90;;;;;;5047706;28;20483;-55
2022/01/19 12:05:22;;;;;;;9.33;4.80;;;1.50;99.90;;;;;;5047150;28;20509;-55
2022/01/19 12:07:52;;;;;;;6.77;5.43;;;1.40;99.90;;;;;;5057079;28;20497;-55
2022/01/19 12:10:22;;;;;;;5.30;4.63;;;1.40;99.90;;;;;;5060465;28;20444;-55
2022/01/19 12:13:35;;;;;;;7.37;4.20;;;1.50;99.90;;;;;;5051229;28;20468;-55
2022/01/19 12:16:09;;;;;;;5.27;4.07;;;1.60;99.90;;;;;;5043642;28;20834;-55
2022/01/19 12:18:49;;;;;;;7.30;5.93;;;1.70;99.90;;;;;;5048028;28;20450;-57
2022/01/19 12:21:32;;;;;;;13.87;11.40;;;1.80;99.90;;;;;;5063986;28;20447;-55
2022/01/19 12:24:15;;;;;;;13.03;9.57;;;1.90;99.90;;;;;;5060845;28;20495;-57
2022/01/19 12:26:51;;;;;;;13.20;9.10;;;1.90;99.90;;;;;;5050565;28;20691;-55
2022/01/19 12:29:50;;;;;;;10.07;6.60;;;2.00;99.90;;;;;;5055803;28;20938;-56
2022/01/19 12:32:45;;;;;;;2.50;2.30;;;2.00;99.90;;;;;;5053129;28;21121;-56
2022/01/19 12:35:31;;;;;;;2.63;2.43;;;2.00;99.90;;;;;;5059192;28;20469;-56
2022/01/19 12:37:59;;;;;;;2.70;2.30;;;2.00;99.90;;;;;;5047812;28;20453;-56
2022/01/19 12:40:35;;;;;;;7.53;2.20;;;2.00;99.90;;;;;;5041180;28;20481;-61
2022/01/19 12:43:05;;;;;;;2.40;2.07;;;2.10;99.90;;;;;;5055192;28;20489;-59
2022/01/19 12:45:34;;;;;;;2.10;1.80;;;2.00;99.90;;;;;;5066526;28;20515;-56
2022/01/19 12:48:04;;;;;;;2.00;1.80;;;2.00;99.90;;;;;;5051986;28;20481;-56
2022/01/19 12:50:37;;;;;;;1.97;1.87;;;2.10;99.90;;;;;;5053080;28;21061;-56
2022/01/19 12:53:24;;;;;;;5.33;2.10;;;2.10;99.90;;;;;;5056924;28;20489;-58
2022/01/19 12:55:55;;;;;;;2.40;2.00;;;2.20;99.90;;;;;;5062254;28;20519;-58
2022/01/19 12:58:29;;;;;;;3.00;2.37;;;2.20;99.90;;;;;;5055277;28;20495;-57
2022/01/19 13:00:58;;;;;;;2.63;2.30;;;2.20;99.90;;;;;;5037876;28;20471;-56
2022/01/19 13:03:30;;;;;;;5.50;3.40;;;2.20;99.90;;;;;;5062938;28;20504;-56
2022/01/19 13:06:02;;;;;;;3.90;2.70;;;2.20;99.90;;;;;;5055827;28;20577;-57
2022/01/19 13:08:33;;;;;;;3.73;2.50;;;2.20;99.90;;;;;;5047059;28;20488;-58
2022/01/19 13:11:11;;;;;;;2.90;2.67;;;2.30;99.90;;;;;;5053610;28;20930;-58
2022/01/19 13:13:50;;;;;;;2.53;2.20;;;2.20;99.90;;;;;;5060237;28;20468;-56
2022/01/19 13:16:44;;;;;;;3.27;2.57;;;2.20;99.90;;;;;;5055610;28;20983;-56
2022/01/19 13:19:17;;;;;;;3.53;2.60;;;2.30;99.90;;;;;;5042642;28;21002;-55
2022/01/19 13:21:47;;;;;;;9.43;2.50;;;2.40;99.90;;;;;;5055858;28;20469;-57
2022/01/19 13:24:18;;;;;;;4.07;2.70;;;2.40;99.90;;;;;;5057745;28;20496;-55
2022/01/19 13:26:48;;;;;;;4.40;3.30;;;2.40;99.90;;;;;;5055640;28;20480;-58
2022/01/19 13:29:19;;;;;;;4.80;3.60;;;2.40;99.90;;;;;;5049828;28;20516;-56
2022/01/19 13:32:12;;;;;;;5.40;2.90;;;2.40;99.90;;;;;;5061622;28;21020;-55
2022/01/19 13:34:55;;;;;;;4.57;4.17;;;2.40;99.90;;;;;;5065367;28;20543;-56
2022/01/19 13:37:24;;;;;;;5.00;3.60;;;2.50;99.90;;;;;;5056822;28;20812;-56
2022/01/19 13:39:56;;;;;;;3.80;3.40;;;2.50;99.90;;;;;;5044337;28;20441;-58
2022/01/19 13:42:40;;;;;;;4.43;2.60;;;2.50;99.90;;;;;;5059736;28;21111;-59
2022/01/19 13:45:13;;;;;;;4.10;3.70;;;2.60;99.90;;;;;;5048323;28;20492;-57
2022/01/19 13:47:54;;;;;;;4.40;3.17;;;2.60;99.90;;;;;;5046537;28;20449;-57
2022/01/19 13:50:24;;;;;;;3.17;2.90;;;2.60;99.90;;;;;;5046908;28;20459;-56
2022/01/19 13:52:51;;;;;;;3.07;2.70;;;2.60;99.90;;;;;;5049205;28;20469;-57
2022/01/19 13:55:20;;;;;;;3.60;3.30;;;2.70;99.90;;;;;;5048177;28;20468;-56
2022/01/19 13:57:47;;;;;;;3.30;2.33;;;2.70;99.90;;;;;;5045310;28;20535;-57
2022/01/19 14:00:16;;;;;;;3.83;1.93;;;2.70;99.90;;;;;;5041365;28;20966;-56
2022/01/19 14:02:56;;;;;;;2.63;2.10;;;2.60;99.90;;;;;;5064179;28;20817;-57
2022/01/19 14:05:40;;;;;;;6.10;3.30;;;2.60;99.90;;;;;;5046150;28;20515;-57